Terminal Aerodrome Forecast
Issued by NWS

Home | Current Version | Previous Version | Text Only | Print | Product List | Glossary On
Versions: 1 2 3 4 5 6 7 8 9 10 11 12 13 14 15 16 17
000
FTAK31 PAFA 250525
TAFAQT
TAF
PAQT 250525Z 2506/2606 33008KT 2SM -SN BR BKN008 BKN015 OVC025
     FM250900 33008KT 4SM -SN BR SCT008 BKN015 OVC025
     FM251200 33008KT 6SM -SN BR BKN015 BKN025 OVC035
     FM251500 30008KT P6SM VCSH SCT015 BKN025 OVC035=

USA.gov is the U.S. government's official web portal to all federal, state and local government web resources and services.